Edchera, Western Sahara
Current Conditions -  °F | °C
As of 3:00 AM on Friday 28 Nov 2014 (Local Time) from GMML Reporting Station
Broken Clouds Broken Clouds  
Wind Chill: 66°   Ceiling: 2000
Heat Index: 66°   Visibility: 5mi
Dew Point: 61°   Wind: 23mph
Humidity: 83%   Direction: 250°WSW
Pressure: 29.68"   Gusts: NA
Location:  27.1°N, 13.3°W
Report Text: GMML 280300Z 25020KT 8000 SCT016 BKN020 19/16 Q1005 NOSIG
Loading
Personal Weather Stations






























Interactive Weather Map New forecast layout! Learn more

10-Day Weather Forecast

Advertisements
Track Severe Weather on mobile